Laona, Wisconsin
Current Conditions -  °F | °C
As of 11:54 PM on Sunday 19 Oct 2014 (Local Time) from KIMT Reporting Station
Overcast Overcast  
Wind Chill: 45°   Ceiling: 5000
Heat Index: 45°   Visibility: 10mi
Dew Point: 43°   Wind: 0mph
Humidity: 93%   Direction: NA
Pressure: 29.72"   Gusts: NA
Location:  45.56°N, 88.67°W
Report Text: KIMT 200454Z AUTO 00000KT 10SM OVC050 07/06 A2972 RMK AO2 SLP071 T00720061
Loading
Personal Weather Stations






























Interactive Weather Map
Tropical Storm Tracking
New forecast layout! Learn more

10-Day Weather Forecast

Advertisements
Track Severe Weather on mobile